Nearby METAR Reports

 

KTTN - Trenton, New Jersey, USA
Distance from station: WNW 11mi, 17km
Updated: Tue, 04-Aug-2020 2:53pm EDT
Light rain, Overcast
Light rain, Overcast
 Wind from W
Wind: W 23 mph , 37 km/h, Gust: 35 mph , 56 km/h
Temperature: 73°F , 23°C
Dew Point: 66°F , 19°C
Humidity: 78%
Barometer: 29.61 inHg , 1002.7 hPa
Summary: Light rain
Clouds: Overcast
Visibility: 10 miles , 16 km
Cloud details: Few Clouds 2000 ft
Mostly cloudy 7000 ft
Overcast 10000 ft
2020/08/04 18:53 KTTN 041853Z 27020G30KT 10SM -RA FEW020 BKN070 OVC100 23/19 A2961 RMK AO2 PK WND 26038/1824 RAE01B32 SLP020 P0000 T02280189
KWRI - Wrightst/Mcguire, New Jersey, USA
Distance from station: SSE 14mi, 22km
Updated: Tue, 04-Aug-2020 2:56pm EDT
Few Clouds
Few Clouds
 Wind from WSW
Wind: WSW 26 mph , 43 km/h, Gust: 45 mph , 72 km/h
Temperature: 73°F , 23°C
Dew Point: 73°F , 23°C
Humidity: 100%
Barometer: 29.68 inHg , 1005.1 hPa
Clouds: Few Clouds
Visibility: 10 miles , 16 km
Cloud details: Few Clouds 2600 ft
Few Clouds 20000 ft
2020/08/04 18:56 KWRI 041856Z 24023G39KT 10SM FEW026 FEW200 23/23 A2968 RMK AO2A PK WND 27049/41 RAE1757 PRESRR SLP049 P0000 T02310231 CHINO RWY24 $
 
KNEL - Lakehurst Nas, New Jersey, USA
Distance from station: SE 21mi, 34km
Updated: Tue, 04-Aug-2020 3:08pm EDT
Mostly cloudy
Mostly cloudy
 
Barometer: 29.68 inHg , 1005.1 hPa
Clouds: Mostly cloudy
Visibility: 10 miles , 16 km
Cloud details: Mostly cloudy 3100 ft
2020/08/04 19:08 KNEL 041908Z AUTO 10SM BKN031 A2968 RMK AO2 PRESRR $
KPNE - Philadelphia/Ne, Pennsylvania, USA
Distance from station: WSW 22mi, 35km
Updated: Tue, 04-Aug-2020 2:54pm EDT
Partly cloudy
Partly cloudy
 Wind from WSW
Wind: WSW 26 mph , 43 km/h, Gust: 35 mph , 56 km/h
Temperature: 75°F , 24°C
Dew Point: 64°F , 18°C
Humidity: 69%
Barometer: 29.70 inHg , 1005.8 hPa
Clouds: Partly cloudy
Visibility: 10 miles , 16 km
Cloud details: Few Clouds 2800 ft
Partly cloudy 12000 ft
2020/08/04 18:54 KPNE 041854Z 25023G30KT 10SM FEW028 SCT120 24/18 A2970 RMK AO2 PK WND 28043/1801 RAB1758E34 PRESRR SLP056 P0000 T02440183
 
KVAY - Mount Holly, New Jersey, USA
Distance from station: SSW 22mi, 35km
Updated: Tue, 04-Aug-2020 11:54am EDT
NOT Current

 
Barometer: 29.47 inHg , 998 hPa
2020/08/04 15:54 KVAY 041554Z AUTO A2947 RMK AO2 SLPNO PWINO $
KMJX - Toms River, New Jersey, USA
Distance from station: SE 26mi, 42km
Updated: Tue, 04-Aug-2020 2:56pm EDT
Overcast
Overcast
 Wind from WSW
Wind: WSW 32 mph , 52 km/h, Gust: 45 mph , 72 km/h
Temperature: 79°F , 26°C
Dew Point: 66°F , 19°C
Humidity: 65%
Barometer: 29.70 inHg , 1005.8 hPa
Clouds: Overcast
Visibility: 10 miles , 16 km
Cloud details: Partly cloudy 2600 ft
Overcast 3300 ft
2020/08/04 18:56 KMJX 041856Z AUTO 25028G39KT 10SM SCT026 OVC033 26/19 A2970 RMK AO2 PK WND 24044/1831 RAB1759E14 PRESRR SLP058 P0000 T02560189
 
KDYL - Doylestown, Pennsylvania, USA
Distance from station: WNW 27mi, 43km
Updated: Tue, 04-Aug-2020 2:54pm EDT
Mostly cloudy
Mostly cloudy
 Wind from WNW
Wind: WNW 14 mph , 22 km/h, Gust: 29 mph , 46 km/h
Temperature: 75°F , 24°C
Dew Point: 66°F , 19°C
Humidity: 74%
Barometer: 29.63 inHg , 1003.4 hPa
Clouds: Mostly cloudy
Visibility: 10 miles , 16 km
Cloud details: Few Clouds 6500 ft
Mostly cloudy 8000 ft
2020/08/04 18:54 KDYL 041854Z AUTO 29012G25KT 10SM FEW065 BKN080 24/19 A2963 RMK AO2 PK WND 30036/1811 RAEMMB16E47 SLP026 P0000 T02440189 $
KBLM - Belmar/Farmdale, New Jersey, USA
Distance from station: E 28mi, 45km
Updated: Tue, 04-Aug-2020 12:56pm EDT
NOT Current
Haze, Overcast
Haze, Overcast
 Wind from SSE
Wind: SSE 31 mph , 50 km/h, Gust: 43 mph , 69 km/h
Temperature: 73°F , 23°C
Barometer: 29.54 inHg , 1000.3 hPa
Summary: Haze
Clouds: Overcast
Visibility: 5 miles , 8 km
Cloud details: Partly cloudy 1300 ft
Overcast 2000 ft
2020/08/04 16:56 KBLM 041656Z AUTO 15027G37KT 5SM HZ SCT013 OVC020 23/ A2954 RMK AO2 PK WND 13046/1558 RAE45 PRESFR SLP002 P0005 T0228
 
KSMQ - Somerville, New Jersey, USA
Distance from station: N 28mi, 45km
Updated: Tue, 04-Aug-2020 3:07pm EDT
Light rain, Overcast
Light rain, Overcast
 Wind from W
Wind: W 15 mph , 24 km/h, Gust: 31 mph , 50 km/h
Temperature: 72°F , 22°C
Dew Point: 68°F , 20°C
Humidity: 88%
Barometer: 29.54 inHg , 1000.3 hPa
Summary: Light rain
Clouds: Overcast
Visibility: 7 miles , 11 km
Cloud details: Partly cloudy 1200 ft
Mostly cloudy 2400 ft
Overcast 3800 ft
2020/08/04 19:07 KSMQ 041907Z AUTO 28013G27KT 230V310 7SM -RA SCT012 BKN024 OVC038 22/20 A2954 RMK AO2 PK WND 28027/1902 PRESRR P0000 T02220200
KLOM - Philly Wings F, Pennsylvania, USA
Distance from station: W 34mi, 54km
Updated: Tue, 04-Aug-2020 2:55pm EDT
Mostly cloudy
Mostly cloudy
 Wind from WSW
Wind: WSW 21 mph , 33 km/h, Gust: 26 mph , 43 km/h
Temperature: 75°F , 24°C
Dew Point: 68°F , 20°C
Humidity: 78%
Barometer: 29.71 inHg , 1006.1 hPa
Clouds: Mostly cloudy
Visibility: 10 miles , 16 km
Cloud details: Partly cloudy 3100 ft
Partly cloudy 9500 ft
Mostly cloudy 12000 ft
2020/08/04 18:55 KLOM 041855Z AUTO 24018G23KT 10SM SCT031 SCT095 BKN120 24/20 A2971 RMK AO2 P0004 T02450195
 
KLDJ - Linden, New Jersey, USA
Distance from station: NE 35mi, 56km
Updated: Tue, 04-Aug-2020 3:15pm EDT
Overcast
Overcast
 Wind from W
Wind: W 14 mph , 22 km/h, Gust: 23 mph , 37 km/h
Temperature: 75°F , 24°C
Dew Point: 70°F , 21°C
Humidity: 83%
Barometer: 29.49 inHg , 998.6 hPa
Clouds: Overcast
Visibility: 7 miles , 11 km
Cloud details: Mostly cloudy 1400 ft
Overcast 2000 ft
2020/08/04 19:15 KLDJ 041915Z AUTO 27012G20KT 240V300 7SM BKN014 OVC020 24/21 A2949 RMK
KCKZ - Perkasie, Pennsylvania, USA
Distance from station: WNW 36mi, 58km
Updated: Tue, 04-Aug-2020 3:15pm EDT
Clear
Clear
 Wind from WSW
Wind: WSW 12 mph , 19 km/h, Gust: 22 mph , 35 km/h
Temperature: 75°F , 24°C
Dew Point: 68°F , 20°C
Humidity: 78%
Barometer: 29.71 inHg , 1006.1 hPa
Clouds: Clear
Visibility: 10 miles , 16 km
2020/08/04 19:15 KCKZ 041915Z AUTO 25010G19KT 10SM CLR 24/20 A2971 RMK AO2
 
KPHL - Philadelphia, Pennsylvania, USA
Distance from station: SW 40mi, 64km
Updated: Tue, 04-Aug-2020 2:54pm EDT
Mostly cloudy
Mostly cloudy
 Wind from WSW
Wind: WSW 28 mph , 44 km/h, Gust: 37 mph , 59 km/h
Temperature: 77°F , 25°C
Dew Point: 64°F , 18°C
Humidity: 65%
Barometer: 29.73 inHg , 1006.8 hPa
Clouds: Mostly cloudy
Visibility: 10 miles , 16 km
Cloud details: Partly cloudy 3000 ft
Mostly cloudy 7000 ft
Mostly cloudy 9500 ft
2020/08/04 18:54 KPHL 041854Z 25024G32KT 10SM SCT030 BKN070 BKN095 25/18 A2973 RMK AO2 PK WND 24032/1852 RAE07 SLP068 P0000 T02500183 $
KEWR - Newark, New Jersey, USA
Distance from station: NE 41mi, 66km
Updated: Tue, 04-Aug-2020 2:51pm EDT
Mist, Overcast
Mist, Overcast
 Wind from S
Wind: S 13 mph , 20 km/h, Gust: 25 mph , 41 km/h
Temperature: 73°F , 23°C
Dew Point: 72°F , 22°C
Humidity: 94%
Barometer: 29.45 inHg , 997.3 hPa
Summary: Mist
Clouds: Overcast
Visibility: 5 miles , 8 km
Cloud details: Mostly cloudy 1000 ft
Overcast 1500 ft
2020/08/04 18:51 KEWR 041851Z 18011G22KT 5SM BR BKN010 OVC015 23/22 A2945 RMK AO2 PK WND 17032/1754 RAE19 SLP972 P0000 T02280217
 
KMMU - Morristown Muni, New Jersey, USA
Distance from station: NNE 41mi, 66km
Updated: Tue, 04-Aug-2020 1:55pm EDT
NOT Current
Rain, Mist, Overcast
Rain, Mist, Overcast
 Wind from SSE
Wind: SSE 21 mph , 33 km/h, Gust: 37 mph , 59 km/h
Temperature: 77°F , 25°C
Dew Point: 75°F , 24°C
Humidity: 94%
Barometer: 29.45 inHg , 997.3 hPa
Summary: Rain, Mist
Clouds: Overcast
Visibility: 2 1/4 miles , 3.6 km
Cloud details: Mostly cloudy 1000 ft
Overcast 1500 ft
2020/08/04 17:55 KMMU 041755Z 15018G32KT 2 1/4SM RA BR BKN010 OVC015 25/24 A2945 RMK PRESFR
KUKT - Quakertown Arp, Pennsylvania, USA
Distance from station: WNW 42mi, 68km
Updated: Tue, 04-Aug-2020 3:15pm EDT
Clear
Clear
 Wind from SW
Wind: SW 13 mph , 20 km/h, Gust: 22 mph , 35 km/h
Temperature: 73°F , 23°C
Dew Point: 68°F , 20°C
Humidity: 83%
Barometer: 29.70 inHg , 1005.8 hPa
Clouds: Clear
Visibility: 10 miles , 16 km
2020/08/04 19:15 KUKT 041915Z AUTO 22011G19KT 10SM CLR 23/20 A2970 RMK A01
 
KJRB - Manhattan/Dwntwn, New York, USA
Distance from station: NE 47mi, 75km
Updated: Tue, 04-Aug-2020 2:56pm EDT
Mist, Overcast
Mist, Overcast
 Wind from SSW
Wind: SSW 9 mph , 15 km/h, Gust: 17 mph , 28 km/h
Temperature: 73°F , 23°C
Dew Point: 70°F , 21°C
Humidity: 89%
Barometer: 29.47 inHg , 998 hPa
Summary: Mist
Clouds: Overcast
Visibility: 6 miles , 10 km
Cloud details: Overcast 1300 ft
2020/08/04 18:56 KJRB 041856Z AUTO 21008G15KT 6SM BR OVC013 23/21 A2947 RMK AO2 PK WND 16029/1800 RAE06 SLP980 P0000 T02280211
KPTW - Pottstown, Pennsylvania, USA
Distance from station: W 48mi, 77km
Updated: Tue, 04-Aug-2020 1:03pm EDT
NOT Current
Light rain, Mist
Light rain, Mist
 Wind from WNW
Wind: WNW 20 mph , 31 km/h, Gust: 38 mph , 61 km/h
Temperature: 66°F , 19°C
Dew Point: 64°F , 18°C
Humidity: 94%
Barometer: 29.53 inHg , 1000 hPa
Summary: Light rain, Mist
Visibility: 3 miles , 5 km
2020/08/04 17:03 KPTW 041703Z AUTO 30017G33KT 3SM -RA BR 19/18 A2953 RMK AO2 PK WND 30033/1657 P0002 T01940178 $
 
KCDW - Caldwell, New Jersey, USA
Distance from station: NNE 50mi, 80km
Updated: Tue, 04-Aug-2020 2:53pm EDT
Mist, Overcast
Mist, Overcast
 Wind from S
Wind: S 10 mph , 17 km/h
Temperature: 73°F , 23°C
Dew Point: 72°F , 22°C
Humidity: 94%
Barometer: 29.45 inHg , 997.3 hPa
Summary: Mist
Clouds: Overcast
Visibility: 4 miles , 6 km
Cloud details: Overcast 900 ft
2020/08/04 18:53 KCDW 041853Z 19009KT 4SM BR OVC009 23/22 A2945 RMK AO2 PK WND 15034/1755 RAE43 CIG 008V013 SLP978 P0002 T02330217